createdAt,value
2023-01-09T00:02:01.927Z,1.00
2023-01-09T00:04:29.023Z,0.80
2023-01-09T00:06:56.428Z,0.80
2023-01-09T00:09:25.108Z,0.60
2023-01-09T00:11:55.077Z,0.63
2023-01-09T00:14:25.892Z,0.50
2023-01-09T00:16:55.805Z,0.73
2023-01-09T00:19:23.385Z,0.63
2023-01-09T00:21:50.742Z,0.50
2023-01-09T00:24:17.899Z,0.60
2023-01-09T00:26:45.156Z,0.60
2023-01-09T00:29:12.401Z,0.50
2023-01-09T00:31:39.789Z,0.80
2023-01-09T00:34:10.665Z,0.70
2023-01-09T00:36:37.932Z,0.60
2023-01-09T00:39:06.116Z,0.90
2023-01-09T00:41:40.925Z,0.80
2023-01-09T00:44:20.478Z,0.80
2023-01-09T00:46:56.768Z,0.70
2023-01-09T00:49:25.310Z,0.70
2023-01-09T00:51:55.591Z,0.70
2023-01-09T00:54:23.701Z,0.90
2023-01-09T00:56:51.163Z,0.80
2023-01-09T00:59:18.543Z,1.00
2023-01-09T01:01:45.850Z,0.80
2023-01-09T01:04:31.753Z,0.70
2023-01-09T01:07:17.464Z,0.80
2023-01-09T01:09:44.582Z,0.63
2023-01-09T01:12:11.816Z,0.77
2023-01-09T01:14:39.629Z,0.97
2023-01-09T01:17:07.813Z,0.80
2023-01-09T01:19:36.318Z,0.70
2023-01-09T01:22:04.230Z,0.90
2023-01-09T01:24:31.822Z,1.10
2023-01-09T01:26:59.136Z,1.00
2023-01-09T01:29:27.572Z,0.90
2023-01-09T01:31:55.038Z,1.00
2023-01-09T01:34:22.356Z,0.80
2023-01-09T01:36:51.419Z,0.80
2023-01-09T01:39:18.780Z,0.70
2023-01-09T01:41:46.163Z,1.00
2023-01-09T01:45:02.956Z,0.73
2023-01-09T01:47:54.643Z,1.00
2023-01-09T01:50:29.561Z,0.90
2023-01-09T01:53:06.141Z,0.80
2023-01-09T01:55:39.235Z,0.90
2023-01-09T01:58:10.795Z,0.80
2023-01-09T02:00:47.847Z,1.10
2023-01-09T02:03:28.626Z,0.90
2023-01-09T02:05:56.084Z,0.97
2023-01-09T02:08:23.750Z,1.00
2023-01-09T02:10:52.644Z,0.93
2023-01-09T02:13:20.680Z,1.07
2023-01-09T02:16:24.899Z,1.03
2023-01-09T02:19:58.215Z,1.10
2023-01-09T02:23:28.246Z,1.13
2023-01-09T02:26:32.293Z,1.20
2023-01-09T02:29:36.061Z,1.03
2023-01-09T02:32:21.721Z,1.30
2023-01-09T02:35:07.605Z,1.23
2023-01-09T02:38:12.400Z,1.30
2023-01-09T02:40:50.914Z,1.20
2023-01-09T02:43:19.409Z,0.97
2023-01-09T02:45:46.710Z,0.97
2023-01-09T02:48:14.410Z,1.10
2023-01-09T02:51:13.020Z,1.10
2023-01-09T02:54:07.349Z,1.30
2023-01-09T02:57:02.170Z,1.40
2023-01-09T02:59:55.241Z,1.20
2023-01-09T03:02:48.059Z,1.50
2023-01-09T03:05:44.147Z,1.40
2023-01-09T03:08:20.953Z,1.50
2023-01-09T03:11:04.915Z,1.40
2023-01-09T03:13:56.249Z,1.40
2023-01-09T03:16:35.776Z,1.40
2023-01-09T03:19:09.833Z,1.60
2023-01-09T03:21:38.273Z,1.80
2023-01-09T03:24:06.170Z,2.00
2023-01-09T03:26:33.792Z,2.13
2023-01-09T03:29:01.416Z,2.30
2023-01-09T03:31:28.813Z,2.00
2023-01-09T03:33:56.281Z,1.60
2023-01-09T03:36:25.838Z,1.83
2023-01-09T03:38:53.137Z,1.60
2023-01-09T03:41:20.759Z,1.40
2023-01-09T03:43:48.686Z,1.80
2023-01-09T03:46:17.583Z,1.43
2023-01-09T03:48:44.793Z,1.73
2023-01-09T03:51:12.018Z,1.50
2023-01-09T03:53:39.512Z,1.33
2023-01-09T03:56:07.183Z,1.40
2023-01-09T03:58:34.476Z,1.40
2023-01-09T04:01:06.033Z,1.70
2023-01-09T04:03:33.372Z,1.63
2023-01-09T04:06:00.557Z,1.47
2023-01-09T04:08:27.749Z,1.57
2023-01-09T04:10:54.968Z,2.00
2023-01-09T04:13:22.312Z,2.30
2023-01-09T04:15:49.902Z,2.43
2023-01-09T04:18:17.242Z,2.00
2023-01-09T04:20:48.513Z,1.60
2023-01-09T04:23:16.671Z,1.60
2023-01-09T04:25:43.983Z,1.73
2023-01-09T04:28:11.286Z,1.40
2023-01-09T04:30:38.543Z,1.40
2023-01-09T04:33:06.270Z,1.47
2023-01-09T04:35:34.082Z,1.40
2023-01-09T04:38:01.299Z,1.73
2023-01-09T04:40:28.728Z,1.37
2023-01-09T04:42:55.874Z,1.63
2023-01-09T04:45:23.031Z,1.23
2023-01-09T04:47:50.231Z,1.50
2023-01-09T04:50:17.592Z,1.57
2023-01-09T04:52:44.890Z,1.80
2023-01-09T04:55:12.235Z,1.37
2023-01-09T04:57:39.415Z,1.37
2023-01-09T05:00:10.051Z,1.53
2023-01-09T05:02:37.715Z,1.50
2023-01-09T05:05:09.676Z,1.30
2023-01-09T05:07:38.512Z,1.30
2023-01-09T05:10:06.898Z,1.30
2023-01-09T05:12:36.897Z,1.27
2023-01-09T05:15:06.698Z,1.33
2023-01-09T05:17:34.043Z,1.37
2023-01-09T05:20:01.503Z,1.40
2023-01-09T05:22:29.448Z,1.30
2023-01-09T05:24:56.952Z,1.57
2023-01-09T05:27:24.910Z,1.10
2023-01-09T05:29:52.055Z,1.93
2023-01-09T05:32:19.249Z,1.40
2023-01-09T05:34:46.349Z,1.30
2023-01-09T05:37:13.493Z,1.50
2023-01-09T05:39:40.675Z,1.27
2023-01-09T05:42:07.926Z,1.40
2023-01-09T05:44:35.108Z,1.43
2023-01-09T05:47:03.003Z,1.27
2023-01-09T05:49:30.347Z,1.40
2023-01-09T05:51:57.459Z,1.60
2023-01-09T05:54:24.827Z,1.30
2023-01-09T05:56:52.044Z,1.50
2023-01-09T05:59:19.852Z,1.30
2023-01-09T06:01:48.185Z,1.60
2023-01-09T06:04:15.647Z,1.40
2023-01-09T06:06:42.899Z,1.60
2023-01-09T06:09:10.250Z,1.50
2023-01-09T06:11:38.680Z,1.50
2023-01-09T06:14:07.017Z,1.50
2023-01-09T06:16:34.287Z,1.63
2023-01-09T06:19:01.572Z,1.90
2023-01-09T06:21:29.738Z,1.63
2023-01-09T06:23:57.275Z,1.30
2023-01-09T06:26:26.176Z,1.53
2023-01-09T06:28:56.011Z,2.17
2023-01-09T06:31:24.561Z,1.80
2023-01-09T06:33:52.135Z,1.43
2023-01-09T06:36:22.224Z,1.40
2023-01-09T06:38:49.920Z,1.63
2023-01-09T06:41:17.868Z,1.67
2023-01-09T06:43:45.571Z,1.30
2023-01-09T06:46:12.931Z,1.90
2023-01-09T06:48:40.274Z,1.67
2023-01-09T06:51:07.619Z,1.53
2023-01-09T06:53:35.324Z,1.80
2023-01-09T06:56:03.025Z,1.60
2023-01-09T06:58:30.258Z,1.63
2023-01-09T07:00:59.920Z,1.70
2023-01-09T07:03:27.337Z,1.77
2023-01-09T07:05:54.903Z,1.83
2023-01-09T07:08:22.427Z,1.60
2023-01-09T07:10:49.731Z,1.77
2023-01-09T07:13:17.254Z,1.80
2023-01-09T07:15:44.654Z,1.90
2023-01-09T07:18:12.184Z,1.93
2023-01-09T07:20:41.676Z,1.83
2023-01-09T07:23:13.266Z,1.70
2023-01-09T07:25:44.033Z,1.90
2023-01-09T07:28:11.516Z,1.80
2023-01-09T07:30:38.881Z,2.07
2023-01-09T07:33:06.266Z,1.70
2023-01-09T07:35:34.009Z,1.70
2023-01-09T07:38:02.182Z,1.97
2023-01-09T07:40:29.431Z,2.00
2023-01-09T07:42:56.851Z,1.70
2023-01-09T07:45:24.147Z,1.83
2023-01-09T07:47:52.633Z,1.50
2023-01-09T07:50:20.621Z,1.97
2023-01-09T07:52:48.231Z,1.60
2023-01-09T07:55:17.458Z,1.80
2023-01-09T07:57:50.527Z,1.87
2023-01-09T08:00:19.247Z,1.90
2023-01-09T08:02:46.877Z,1.77
2023-01-09T08:05:16.092Z,1.87
2023-01-09T08:07:43.639Z,1.87
2023-01-09T08:10:12.197Z,1.93
2023-01-09T08:12:43.890Z,1.80
2023-01-09T08:15:11.934Z,1.87
2023-01-09T08:17:45.147Z,1.80
2023-01-09T08:20:15.404Z,1.50
2023-01-09T08:22:44.231Z,1.70
2023-01-09T08:25:12.613Z,1.60
2023-01-09T08:27:40.507Z,1.50
2023-01-09T08:30:10.023Z,1.60
2023-01-09T08:32:38.012Z,1.83
2023-01-09T08:35:06.623Z,1.43
2023-01-09T08:37:33.958Z,1.70
2023-01-09T08:40:01.410Z,1.50
2023-01-09T08:42:47.293Z,1.43
2023-01-09T08:45:33.135Z,1.77
2023-01-09T08:48:00.500Z,1.90
2023-01-09T08:50:27.761Z,1.70
2023-01-09T08:52:55.232Z,1.40
2023-01-09T08:55:22.581Z,1.73
2023-01-09T08:57:54.935Z,1.67
2023-01-09T09:00:24.833Z,1.30
2023-01-09T09:02:59.094Z,1.43
2023-01-09T09:05:30.234Z,1.40
2023-01-09T09:07:58.351Z,1.83
2023-01-09T09:10:32.306Z,1.40
2023-01-09T09:13:00.347Z,1.50
2023-01-09T09:15:29.098Z,1.70
2023-01-09T09:18:03.188Z,1.60
2023-01-09T09:20:34.598Z,1.50
2023-01-09T09:23:03.984Z,1.70
2023-01-09T09:25:31.695Z,1.70
2023-01-09T09:28:01.298Z,1.60
2023-01-09T09:30:28.950Z,1.73
2023-01-09T09:32:56.710Z,1.60
2023-01-09T09:35:24.278Z,1.70
2023-01-09T09:38:04.695Z,1.53
2023-01-09T09:41:05.059Z,2.17
2023-01-09T09:44:39.587Z,1.50
2023-01-09T09:47:29.517Z,1.50
2023-01-09T09:50:40.285Z,1.63
2023-01-09T09:53:39.053Z,1.40
2023-01-09T09:56:12.998Z,1.67
2023-01-09T09:58:57.509Z,2.00
2023-01-09T10:02:03.396Z,1.60
2023-01-09T10:04:36.932Z,1.47
2023-01-09T10:07:11.285Z,1.63
2023-01-09T10:10:00.812Z,1.60
2023-01-09T10:12:56.028Z,1.67
2023-01-09T10:15:46.751Z,1.40
2023-01-09T10:18:45.112Z,1.60
2023-01-09T10:21:27.056Z,1.77
2023-01-09T10:24:33.026Z,1.60
2023-01-09T10:27:13.848Z,1.60
2023-01-09T10:29:56.253Z,1.73
2023-01-09T10:32:56.539Z,2.23
2023-01-09T10:35:53.306Z,1.83
2023-01-09T10:38:32.010Z,1.73
2023-01-09T10:41:20.118Z,1.80
2023-01-09T10:44:00.370Z,1.70
2023-01-09T10:46:49.390Z,1.97
2023-01-09T10:49:18.845Z,1.53
2023-01-09T10:52:05.820Z,1.80
2023-01-09T10:54:33.554Z,1.73
2023-01-09T10:57:40.583Z,1.60
2023-01-09T11:00:17.090Z,1.87
2023-01-09T11:02:45.388Z,1.70
2023-01-09T11:05:31.837Z,1.80
2023-01-09T11:08:13.079Z,1.63
2023-01-09T11:11:00.112Z,1.30
2023-01-09T11:13:36.698Z,1.77
2023-01-09T11:16:23.939Z,1.90
2023-01-09T11:18:56.482Z,1.90
2023-01-09T11:21:32.912Z,1.70
2023-01-09T11:24:18.875Z,1.90
2023-01-09T11:26:53.037Z,1.67
2023-01-09T11:29:26.234Z,1.60
2023-01-09T11:31:59.854Z,1.70
2023-01-09T11:34:35.146Z,1.90
2023-01-09T11:37:14.354Z,1.50
2023-01-09T11:39:48.331Z,1.50
2023-01-09T11:42:47.483Z,2.13
2023-01-09T11:45:24.617Z,1.30
2023-01-09T11:47:52.109Z,1.50
2023-01-09T11:50:23.952Z,1.50
2023-01-09T11:53:15.010Z,1.60
2023-01-09T11:55:44.755Z,1.77
2023-01-09T11:58:21.986Z,1.83
2023-01-09T12:01:04.278Z,1.80
2023-01-09T12:03:57.599Z,1.70
2023-01-09T12:06:46.593Z,1.70
2023-01-09T12:09:35.528Z,1.73
2023-01-09T12:12:19.522Z,1.67
2023-01-09T12:15:26.432Z,2.20
2023-01-09T12:18:24.151Z,1.80
2023-01-09T12:21:28.399Z,1.60
2023-01-09T12:24:28.647Z,1.73
2023-01-09T12:27:26.544Z,1.60
2023-01-09T12:30:06.321Z,1.87
2023-01-09T12:33:08.541Z,1.37
2023-01-09T12:35:46.820Z,1.70
2023-01-09T12:38:34.925Z,1.90
2023-01-09T12:41:42.836Z,1.63
2023-01-09T12:44:51.962Z,1.70
2023-01-09T12:47:31.436Z,1.60
2023-01-09T12:50:38.430Z,1.70
2023-01-09T12:53:17.653Z,2.20
2023-01-09T12:56:17.525Z,2.00
2023-01-09T12:59:00.451Z,1.90
2023-01-09T13:01:39.869Z,1.90
2023-01-09T13:04:24.304Z,1.90
2023-01-09T13:07:00.966Z,2.17
2023-01-09T13:10:00.069Z,1.90
2023-01-09T13:12:35.529Z,2.00
2023-01-09T13:15:41.566Z,2.13
2023-01-09T13:18:18.975Z,1.97
2023-01-09T13:20:53.064Z,1.90
2023-01-09T13:23:50.199Z,2.10
2023-01-09T13:26:27.582Z,1.87
2023-01-09T13:29:07.584Z,2.07
2023-01-09T13:32:15.260Z,2.10
2023-01-09T13:34:49.167Z,2.40
2023-01-09T13:37:28.912Z,2.30
2023-01-09T13:40:20.437Z,2.27
2023-01-09T13:43:05.662Z,1.73
2023-01-09T13:45:40.223Z,2.20
2023-01-09T13:48:17.908Z,2.03
2023-01-09T13:50:54.223Z,2.67
2023-01-09T13:53:25.525Z,2.30
2023-01-09T13:55:59.104Z,2.33
2023-01-09T13:58:32.011Z,2.17
2023-01-09T14:01:35.650Z,2.00
2023-01-09T14:04:24.028Z,2.10
2023-01-09T14:07:25.787Z,1.87
2023-01-09T14:10:01.602Z,1.70
2023-01-09T14:12:40.700Z,2.10
2023-01-09T14:15:49.743Z,2.20
2023-01-09T14:18:22.869Z,2.20
2023-01-09T14:21:04.200Z,2.17
2023-01-09T14:23:52.852Z,1.90
2023-01-09T14:26:41.434Z,2.60
2023-01-09T14:29:37.991Z,2.60
2023-01-09T14:32:23.573Z,2.23
2023-01-09T14:35:06.259Z,2.70
2023-01-09T14:37:37.108Z,2.50
2023-01-09T14:40:21.206Z,2.60
2023-01-09T14:42:53.710Z,2.40
2023-01-09T14:45:28.275Z,2.40
2023-01-09T14:48:04.856Z,2.50
2023-01-09T14:50:51.510Z,2.50
2023-01-09T14:53:30.462Z,2.40
2023-01-09T14:56:01.918Z,2.07
2023-01-09T14:58:32.254Z,2.43
2023-01-09T15:01:32.891Z,2.70
2023-01-09T15:04:19.631Z,2.67
2023-01-09T15:06:49.019Z,2.63
2023-01-09T15:09:29.761Z,2.63
2023-01-09T15:12:07.251Z,2.60
2023-01-09T15:14:41.017Z,2.60
2023-01-09T15:17:23.965Z,2.60
2023-01-09T15:19:52.213Z,2.70
2023-01-09T15:22:32.524Z,2.87
2023-01-09T15:25:22.754Z,2.53
2023-01-09T15:27:58.523Z,2.97
2023-01-09T15:30:37.351Z,2.60
2023-01-09T15:33:17.037Z,3.00
2023-01-09T15:35:49.787Z,2.90
2023-01-09T15:38:22.700Z,3.10
2023-01-09T15:41:04.787Z,2.50
2023-01-09T15:43:33.484Z,2.87
2023-01-09T15:46:01.931Z,3.30
2023-01-09T15:48:35.450Z,2.97
2023-01-09T15:51:18.649Z,3.50
2023-01-09T15:53:51.638Z,3.40
2023-01-09T15:56:35.035Z,3.37
2023-01-09T15:59:02.419Z,3.50
2023-01-09T16:01:31.618Z,3.47
2023-01-09T16:04:17.745Z,3.80
2023-01-09T16:06:49.449Z,3.73
2023-01-09T16:09:28.308Z,4.00
2023-01-09T16:12:00.739Z,3.90
2023-01-09T16:14:45.793Z,4.20
2023-01-09T16:17:18.744Z,4.20
2023-01-09T16:20:13.440Z,4.70
2023-01-09T16:22:56.657Z,4.30
2023-01-09T16:25:35.249Z,4.20
2023-01-09T16:28:23.220Z,4.93
2023-01-09T16:31:14.149Z,4.60
2023-01-09T16:33:53.548Z,3.90
2023-01-09T16:36:23.481Z,4.73
2023-01-09T16:38:50.707Z,5.67
2023-01-09T16:41:40.602Z,5.13
2023-01-09T16:44:10.829Z,5.27
2023-01-09T16:46:43.830Z,4.60
2023-01-09T16:49:23.672Z,4.27
2023-01-09T16:51:54.779Z,4.33
2023-01-09T16:54:22.631Z,4.40
2023-01-09T16:56:54.539Z,4.20
2023-01-09T16:59:28.127Z,3.70
2023-01-09T17:01:56.005Z,3.50
2023-01-09T17:04:26.239Z,4.30
2023-01-09T17:06:53.531Z,4.33
2023-01-09T17:09:24.595Z,4.60
2023-01-09T17:11:53.326Z,4.57
2023-01-09T17:14:20.658Z,4.47
2023-01-09T17:16:48.085Z,4.93
2023-01-09T17:19:20.821Z,4.27
2023-01-09T17:21:48.501Z,4.10
2023-01-09T17:24:34.298Z,4.03
2023-01-09T17:27:21.660Z,3.90
2023-01-09T17:29:49.087Z,3.77
2023-01-09T17:32:18.839Z,3.67
2023-01-09T17:34:46.205Z,3.67
2023-01-09T17:37:18.953Z,3.53
2023-01-09T17:39:46.690Z,3.40
2023-01-09T17:42:14.428Z,3.37
2023-01-09T17:44:41.719Z,3.50
2023-01-09T17:47:17.831Z,3.70
2023-01-09T17:49:45.197Z,3.80
2023-01-09T17:52:12.658Z,4.27
2023-01-09T17:54:40.279Z,4.30
2023-01-09T17:57:10.806Z,4.73
2023-01-09T17:59:38.079Z,4.50
2023-01-09T18:02:06.095Z,4.23
2023-01-09T18:04:33.620Z,4.37
2023-01-09T18:07:00.797Z,4.47
2023-01-09T18:09:27.950Z,4.60
2023-01-09T18:11:55.114Z,4.67
2023-01-09T18:14:22.655Z,4.73
2023-01-09T18:16:49.945Z,4.90
2023-01-09T18:19:17.194Z,4.77
2023-01-09T18:21:46.884Z,5.20
2023-01-09T18:24:16.346Z,4.33
2023-01-09T18:26:43.526Z,4.67
2023-01-09T18:29:11.705Z,4.77
2023-01-09T18:31:39.137Z,4.37
2023-01-09T18:34:07.621Z,4.60
2023-01-09T18:36:35.587Z,4.80
2023-01-09T18:39:05.796Z,4.90
2023-01-09T18:41:33.035Z,4.60
2023-01-09T18:44:02.275Z,3.97
2023-01-09T18:46:34.995Z,4.90
2023-01-09T18:49:04.917Z,4.80
2023-01-09T18:51:34.672Z,4.53
2023-01-09T18:54:04.439Z,4.90
2023-01-09T18:56:31.723Z,4.50
2023-01-09T18:58:59.036Z,4.83
2023-01-09T19:01:28.953Z,4.90
2023-01-09T19:03:59.560Z,4.97
2023-01-09T19:06:29.011Z,4.40
2023-01-09T19:08:58.388Z,5.40
2023-01-09T19:11:28.676Z,4.90
2023-01-09T19:14:01.431Z,4.63
2023-01-09T19:16:28.744Z,4.90
2023-01-09T19:18:57.488Z,4.83
2023-01-09T19:21:27.020Z,5.00
2023-01-09T19:23:55.031Z,4.53
2023-01-09T19:26:26.184Z,4.43
2023-01-09T19:28:57.632Z,4.50
2023-01-09T19:31:28.703Z,4.57
2023-01-09T19:33:56.894Z,4.60
2023-01-09T19:36:27.210Z,4.53
2023-01-09T19:39:04.196Z,4.53
2023-01-09T19:41:31.723Z,4.57
2023-01-09T19:44:14.829Z,4.63
2023-01-09T19:46:42.073Z,4.50
2023-01-09T19:49:09.480Z,4.60
2023-01-09T19:51:36.661Z,4.73
2023-01-09T19:56:35.752Z,4.10
2023-01-09T19:59:05.769Z,4.20
2023-01-09T20:01:37.621Z,3.83
2023-01-09T20:04:13.769Z,3.50
2023-01-09T20:06:45.352Z,3.63
2023-01-09T20:09:16.145Z,3.40
2023-01-09T20:11:45.037Z,3.13
2023-01-09T20:14:15.678Z,3.40
2023-01-09T20:16:44.570Z,2.97
2023-01-09T20:19:14.346Z,2.93
2023-01-09T20:21:42.770Z,3.03
2023-01-09T20:24:17.062Z,3.47
2023-01-09T20:26:46.398Z,3.13
2023-01-09T20:29:14.057Z,4.53
2023-01-09T20:31:41.478Z,3.23
2023-01-09T20:34:11.405Z,3.17
2023-01-09T20:36:39.017Z,2.70
2023-01-09T20:39:11.054Z,2.73
2023-01-09T20:41:41.592Z,2.60
2023-01-09T20:44:13.220Z,2.70
2023-01-09T20:46:48.331Z,2.73
2023-01-09T20:49:18.604Z,2.97
2023-01-09T20:51:49.854Z,2.77
2023-01-09T20:54:21.461Z,3.27
2023-01-09T20:56:49.231Z,3.07
2023-01-09T20:59:22.442Z,3.03
2023-01-09T21:01:50.935Z,3.03
2023-01-09T21:04:18.612Z,3.10
2023-01-09T21:06:47.045Z,3.33
2023-01-09T21:09:15.540Z,3.90
2023-01-09T21:11:42.778Z,3.60
2023-01-09T21:14:10.187Z,3.23
2023-01-09T21:16:37.449Z,3.60
2023-01-09T21:19:04.871Z,3.90
2023-01-09T21:21:32.254Z,4.20
2023-01-09T21:24:01.112Z,4.60
2023-01-09T21:26:30.794Z,4.90
2023-01-09T21:29:00.442Z,5.17
2023-01-09T21:31:34.834Z,5.27
2023-01-09T21:34:05.542Z,5.57
2023-01-09T21:36:33.219Z,6.10
2023-01-09T21:39:01.051Z,6.07
2023-01-09T21:41:47.010Z,5.90
2023-01-09T21:44:32.678Z,6.20
2023-01-09T21:47:02.486Z,5.87
2023-01-09T21:49:35.109Z,6.50
2023-01-09T21:52:06.156Z,5.70
2023-01-09T21:54:34.996Z,5.70
2023-01-09T21:57:04.450Z,6.17
2023-01-09T21:59:32.028Z,5.93
2023-01-09T22:02:00.134Z,5.70
2023-01-09T22:04:29.101Z,5.23
2023-01-09T22:06:57.050Z,5.07
2023-01-09T22:10:39.098Z,4.40
2023-01-09T22:13:17.758Z,4.63
2023-01-09T22:15:47.541Z,4.37
2023-01-09T22:18:16.401Z,4.47
2023-01-09T22:20:45.639Z,4.27
2023-01-09T22:23:12.973Z,4.70
2023-01-09T22:25:42.120Z,4.33
2023-01-09T22:28:10.436Z,3.97
2023-01-09T22:30:42.169Z,4.07
2023-01-09T22:33:13.575Z,3.90
2023-01-09T22:35:42.865Z,3.67
2023-01-09T22:38:11.900Z,3.50
2023-01-09T22:40:40.467Z,3.63
2023-01-09T22:43:07.802Z,3.60
2023-01-09T22:45:35.058Z,3.80
2023-01-09T22:48:02.639Z,4.03
2023-01-09T22:50:33.108Z,3.60
2023-01-09T22:53:00.483Z,3.87
2023-01-09T22:55:27.718Z,3.97
2023-01-09T22:57:55.085Z,4.63
2023-01-09T23:00:22.436Z,3.80
2023-01-09T23:02:50.015Z,3.47
2023-01-09T23:05:19.775Z,4.50
2023-01-09T23:07:47.017Z,3.63
2023-01-09T23:10:14.337Z,3.67
2023-01-09T23:12:46.961Z,3.70
2023-01-09T23:15:14.386Z,3.90
2023-01-09T23:17:41.628Z,3.97
2023-01-09T23:20:10.689Z,4.20
2023-01-09T23:22:54.252Z,3.87
2023-01-09T23:25:46.740Z,4.10
2023-01-09T23:28:26.574Z,3.93
2023-01-09T23:30:54.632Z,3.40
2023-01-09T23:33:22.249Z,3.47
2023-01-09T23:35:49.822Z,3.50
2023-01-09T23:38:17.223Z,3.57
2023-01-09T23:40:44.542Z,3.60
2023-01-09T23:43:14.814Z,3.50
2023-01-09T23:45:47.036Z,3.27
2023-01-09T23:48:16.965Z,3.43
2023-01-09T23:50:50.848Z,3.23
2023-01-09T23:53:20.457Z,3.73
2023-01-09T23:55:48.563Z,3.33
2023-01-09T23:58:16.095Z,3.87
